Latest Weather Observations for Sydney Harbour

IDN60901

Issued at 12:31 am EST Friday 19 April 2019 (issued every 10 minutes, with the page automatically refreshed every 10 minutes)

About weather observations | Map of Sydney area stations | Latest observations for Sydney area | Other Formats
Station Details ID: 066196 Name: WEDDING CAKE WEST Lat: -33.84 Lon: 151.26 Height: 6.0 m
Data from the previous 72 hours. | See also: Recent months at Sydney Harbour
Date/Time
EST
Temp
°C
App
Temp
°C
Dew
Point
°C
Rel
Hum
%
Delta-T
°C
Wind Press
QNH
hPa
Press
MSL
hPa
Rain since
9am
mm
Dir  Spd
km/h
Gust
km/h
Spd
kts
Gust
kts
19/12:30am 21.0 - - - - S 19 26 10 14 - - -
19/12:00am 21.0 - - - - S 20 28 11 15 - - -
 
Date/Time
EST
Temp
°C
App
Temp
°C
Dew
Point
°C
Rel
Hum
%
Delta-T
°C
Wind Press
QNH
hPa
Press
MSL
hPa
Rain since
9am
mm
Dir  Spd
km/h
Gust
km/h
Spd
kts
Gust
kts
18/11:30pm 21.0 - - - - S 20 28 11 15 - - -
18/11:00pm 21.0 - - - - S 22 32 12 17 - - -
18/10:30pm 21.0 - - - - S 22 28 12 15 - - -
18/10:00pm 21.1 - - - - S 24 32 13 17 - - -
18/09:30pm 21.2 - - - - S 22 32 12 17 - - -
18/09:00pm 21.4 - - - - S 19 26 10 14 - - -
18/08:30pm 21.5 - - - - S 11 11 6 6 - - -
18/08:00pm 21.3 - - - - SSW 13 17 7 9 - - -
18/07:30pm 21.5 - - - - NE 9 13 5 7 - - -
18/07:00pm 21.6 - - - - NNE 9 13 5 7 - - -
18/06:30pm 21.5 - - - - NNE 9 11 5 6 - - -
18/06:00pm 21.7 - - - - NE 11 15 6 8 - - -
18/05:30pm 21.9 - - - - NNE 17 20 9 11 - - -
18/05:00pm 22.0 - - - - NNE 22 26 12 14 - - -
18/04:30pm 22.2 - - - - NNE 26 30 14 16 - - -
18/04:00pm 22.4 - - - - NNE 26 30 14 16 - - -
18/03:30pm 22.5 - - - - NE 19 20 10 11 - - -
18/03:00pm 22.3 - - - - NE 20 24 11 13 - - -
18/02:30pm 22.2 - - - - NE 20 22 11 12 - - -
18/02:00pm 22.2 - - - - ENE 20 24 11 13 - - -
18/01:30pm 22.5 - - - - ENE 17 20 9 11 - - -
18/01:00pm 22.7 - - - - ENE 19 22 10 12 - - -
18/12:30pm 22.8 - - - - ENE 13 17 7 9 - - -
18/12:00pm 22.7 - - - - ENE 13 17 7 9 - - -
18/11:30am 24.3 - - - - SE 7 11 4 6 - - -
18/11:00am 23.2 - - - - NW 11 20 6 11 - - -
18/10:30am 22.7 - - - - NNW 15 20 8 11 - - -
18/10:00am 22.2 - - - - NNW 15 20 8 11 - - -
18/09:30am 21.7 - - - - NNW 13 20 7 11 - - -
18/09:00am 21.0 - - - - NNW 7 15 4 8 - - -
18/08:30am 20.7 - - - - CALM 0 6 0 3 - - -
18/08:00am 19.8 - - - - NE 4 6 2 3 - - -
18/07:30am 18.2 - - - - WSW 4 7 2 4 - - -
18/07:00am 17.6 - - - - WSW 4 7 2 4 - - -
18/06:30am 17.4 - - - - WSW 6 11 3 6 - - -
18/06:00am 17.1 - - - - W 17 24 9 13 - - -
18/05:30am 17.5 - - - - SW 9 15 5 8 - - -
18/05:00am 17.9 - - - - WSW 7 11 4 6 - - -
18/04:30am 18.3 - - - - SW 6 15 3 8 - - -
18/04:00am 18.4 - - - - SW 13 15 7 8 - - -
18/03:30am 18.0 - - - - NNE 7 9 4 5 - - -
18/03:00am 18.7 - - - - SW 4 7 2 4 - - -
18/02:30am 18.8 - - - - SW 6 9 3 5 - - -
18/02:00am 18.5 - - - - W 2 7 1 4 - - -
18/01:30am 18.7 - - - - NNW 6 7 3 4 - - -
18/01:00am 19.2 - - - - WSW 4 9 2 5 - - -
18/12:30am 19.2 - - - - W 7 11 4 6 - - -
18/12:00am 19.5 - - - - WSW 6 7 3 4 - - -
 
Date/Time
EST
Temp
°C
App
Temp
°C
Dew
Point
°C
Rel
Hum
%
Delta-T
°C
Wind Press
QNH
hPa
Press
MSL
hPa
Rain since
9am
mm
Dir  Spd
km/h
Gust
km/h
Spd
kts
Gust
kts
17/11:30pm 19.6 - - - - WSW 6 7 3 4 - - -
17/11:00pm 19.7 - - - - WSW 4 9 2 5 - - -
17/10:30pm 19.9 - - - - SW 2 6 1 3 - - -
17/10:00pm 20.3 - - - - NNW 6 7 3 4 - - -
17/09:30pm 20.4 - - - - N 9 9 5 5 - - -
17/09:00pm 20.5 - - - - N 9 11 5 6 - - -
17/08:30pm 20.6 - - - - N 7 7 4 4 - - -
17/08:00pm 20.7 - - - - NNW 6 9 3 5 - - -
17/07:30pm 21.2 - - - - NE 7 9 4 5 - - -
17/07:00pm 21.2 - - - - NE 11 13 6 7 - - -
17/06:30pm 21.4 - - - - ENE 13 15 7 8 - - -
17/06:00pm 21.3 - - - - ENE 13 15 7 8 - - -
17/05:30pm 21.5 - - - - ENE 13 17 7 9 - - -
17/05:00pm 21.9 - - - - ENE 13 17 7 9 - - -
17/04:30pm 21.9 - - - - E 17 19 9 10 - - -
17/04:00pm 22.6 - - - - E 17 20 9 11 - - -
17/03:30pm 22.7 - - - - E 15 17 8 9 - - -
17/03:00pm 22.7 - - - - E 17 20 9 11 - - -
17/02:30pm 22.9 - - - - ESE 15 17 8 9 - - -
17/02:00pm 23.2 - - - - E 13 17 7 9 - - -
17/01:30pm 23.0 - - - - E 15 17 8 9 - - -
17/01:00pm 23.2 - - - - E 13 15 7 8 - - -
17/12:30pm 23.0 - - - - E 7 11 4 6 - - -
17/12:00pm 23.2 - - - - CALM 0 0 0 0 - - -
17/11:30am 21.4 - - - - CALM 0 0 0 0 - - -
17/11:00am 20.6 - - - - SW 4 7 2 4 - - -
17/10:30am 20.2 - - - - S 7 9 4 5 - - -
17/10:00am 20.3 - - - - W 9 13 5 7 - - -
17/09:30am 19.8 - - - - WSW 13 15 7 8 - - -
17/09:00am 19.2 - - - - WSW 13 15 7 8 - - -
17/08:30am 18.8 - - - - SW 11 15 6 8 - - -
17/08:00am 18.4 - - - - WSW 7 11 4 6 - - -
17/07:30am 17.8 - - - - SW 6 9 3 5 - - -
17/07:00am 17.4 - - - - SW 9 13 5 7 - - -
17/06:30am 17.3 - - - - WSW 7 9 4 5 - - -
17/06:00am 17.3 - - - - WSW 9 11 5 6 - - -
17/05:30am 17.4 - - - - WSW 11 13 6 7 - - -
17/05:00am 17.4 - - - - WSW 9 11 5 6 - - -
17/04:30am 17.7 - - - - WSW 9 11 5 6 - - -
17/04:00am 17.9 - - - - WSW 7 9 4 5 - - -
17/03:30am 17.9 - - - - W 6 7 3 4 - - -
17/03:00am 17.9 - - - - WSW 11 15 6 8 - - -
17/02:30am 18.1 - - - - WSW 9 13 5 7 - - -
17/02:00am 18.3 - - - - WSW 7 7 4 4 - - -
17/01:30am 18.5 - - - - WSW 7 9 4 5 - - -
17/01:00am 18.7 - - - - WSW 6 7 3 4 - - -
17/12:30am 18.9 - - - - WSW 7 11 4 6 - - -
17/12:00am 19.0 - - - - W 11 13 6 7 - - -
 
Date/Time
EST
Temp
°C
App
Temp
°C
Dew
Point
°C
Rel
Hum
%
Delta-T
°C
Wind Press
QNH
hPa
Press
MSL
hPa
Rain since
9am
mm
Dir  Spd
km/h
Gust
km/h
Spd
kts
Gust
kts
16/11:30pm 19.2 - - - - W 13 15 7 8 - - -
16/11:00pm 19.5 - - - - WSW 9 11 5 6 - - -
16/10:30pm 20.1 - - - - SW 6 7 3 4 - - -
16/10:00pm 20.8 - - - - ESE 9 9 5 5 - - -
16/09:30pm 20.9 - - - - E 13 15 7 8 - - -
16/09:00pm 20.9 - - - - ESE 11 13 6 7 - - -
16/08:30pm 20.8 - - - - ESE 11 13 6 7 - - -
16/08:00pm 20.9 - - - - ESE 13 15 7 8 - - -
16/07:30pm 20.9 - - - - ESE 11 13 6 7 - - -
16/07:00pm 20.9 - - - - ESE 9 13 5 7 - - -
16/06:30pm 21.0 - - - - E 11 13 6 7 - - -
16/06:00pm 21.1 - - - - ESE 11 13 6 7 - - -
16/05:30pm 21.2 - - - - ESE 13 15 7 8 - - -
16/05:00pm 21.9 - - - - ESE 15 19 8 10 - - -
16/04:30pm 22.2 - - - - ESE 15 19 8 10 - - -
16/04:00pm 22.7 - - - - SE 15 17 8 9 - - -
16/03:30pm 22.3 - - - - SE 17 20 9 11 - - -
16/03:00pm 22.1 - - - - SE 20 26 11 14 - - -
16/02:30pm 21.9 - - - - SE 19 26 10 14 - - -
16/02:00pm 21.8 - - - - SE 17 22 9 12 - - -
16/01:30pm 21.3 - - - - S 19 24 10 13 - - -
16/01:00pm 22.2 - - - - SE 19 24 10 13 - - -
16/12:30pm 21.6 - - - - SE 17 20 9 11 - - -
16/12:00pm 21.0 - - - - S 19 24 10 13 - - -
16/11:30am 21.2 - - - - S 20 26 11 14 - - -
16/11:00am 21.3 - - - - S 19 20 10 11 - - -
16/10:30am 20.9 - - - - S 19 22 10 12 - - -
16/10:00am 20.4 - - - - SW 11 17 6 9 - - -
16/09:30am 19.8 - - - - SW 9 15 5 8 - - -
16/09:00am 19.1 - - - - WSW 15 19 8 10 - - -
16/08:30am 18.5 - - - - WSW 13 17 7 9 - - -
16/08:00am 17.9 - - - - WSW 17 20 9 11 - - -
16/07:30am 17.5 - - - - SW 13 15 7 8 - - -
16/07:00am 17.2 - - - - WSW 15 20 8 11 - - -
16/06:30am 16.6 - - - - WSW 15 19 8 10 - - -
16/06:00am 16.9 - - - - WSW 15 20 8 11 - - -
16/05:30am 17.0 - - - - WSW 11 15 6 8 - - -
16/05:00am 16.7 - - - - WSW 13 15 7 8 - - -
16/04:30am 16.7 - - - - WSW 13 19 7 10 - - -
16/04:00am 16.6 - - - - W 17 22 9 12 - - -
16/03:30am 17.2 - - - - WSW 13 15 7 8 - - -
16/03:00am 17.2 - - - - WSW 13 17 7 9 - - -
16/02:30am 17.3 - - - - WSW 15 17 8 9 - - -
16/02:00am 17.6 - - - - WSW 13 17 7 9 - - -
16/01:30am 17.8 - - - - WSW 15 17 8 9 - - -
16/01:00am 18.0 - - - - WSW 15 19 8 10 - - -

Latest Capital City Observations: Canberra | Sydney | Melbourne | Brisbane | Adelaide | Perth | Hobart | Darwin

Other formats

Comma delimited format used in spreadsheet applications
http://www.bom.gov.au/fwo/IDN60901/IDN60901.95766.axf

JavaScript Object Notation format (JSON) in row-major order
http://www.bom.gov.au/fwo/IDN60901/IDN60901.95766.json

Data quality

Most of these data are generated automatically and are frequently updated. Quality checks on data are not normally performed. It is possible for incorrect values to appear. Refer to information at About Latest Weather Observations and please check the disclaimer before using these data.